Time;durP1;ratioP1;P1;durP2;ratioP2;P2;SDS_P1;SDS_P2;PMS_P1;PMS_P2;Temp;Humidity;BMP_temperature;BMP_pressure;BME280_temperature;BME280_humidity;BME280_pressure;Samples;Min_cycle;Max_cycle;Signal;HPM_P1;HPM_P2
2022/12/19 16:00:21;;;;;;;3.80;1.17;;;11.10;99.90;;;;;;4972692;23;20269;31
2022/12/19 16:02:51;;;;;;;2.80;1.13;;;11.10;99.90;;;;;;4831240;29;20300;-70
2022/12/19 16:05:19;;;;;;;2.73;1.00;;;11.10;99.90;;;;;;4838395;29;20604;-70
2022/12/19 16:07:46;;;;;;;1.83;1.00;;;11.10;99.90;;;;;;4828070;29;20242;-70
2022/12/19 16:10:14;;;;;;;2.20;1.10;;;11.20;99.90;;;;;;4831522;29;20270;-71
2022/12/19 16:12:43;;;;;;;3.70;1.10;;;11.30;99.90;;;;;;4822097;29;20220;-69
2022/12/19 16:15:17;;;;;;;2.13;1.13;;;11.30;99.90;;;;;;4821966;29;20217;-70
2022/12/19 16:17:44;;;;;;;2.83;1.13;;;11.30;99.90;;;;;;4821937;29;20237;-71
2022/12/19 16:20:21;;;;;;;2.00;1.03;;;11.30;99.90;;;;;;4821898;29;20225;-71
2022/12/19 16:22:48;;;;;;;4.23;1.10;;;11.30;99.90;;;;;;4822415;29;20209;-69
2022/12/19 16:25:15;;;;;;;2.43;1.20;;;11.20;99.90;;;;;;4821759;29;20665;-71
2022/12/19 16:27:43;;;;;;;5.40;1.20;;;11.20;99.90;;;;;;4821455;29;20233;-70
2022/12/19 16:30:17;;;;;;;3.70;1.30;;;11.30;99.90;;;;;;4821700;29;20219;-69
2022/12/19 16:32:45;;;;;;;3.27;1.27;;;11.30;99.90;;;;;;4826822;29;20212;-69
2022/12/19 16:35:14;;;;;;;2.27;1.50;;;11.20;99.90;;;;;;4839084;29;20216;-69
2022/12/19 16:37:42;;;;;;;2.63;1.07;;;11.20;99.90;;;;;;4821576;29;20609;-71
2022/12/19 16:40:14;;;;;;;3.13;1.20;;;11.20;99.90;;;;;;4821533;29;20305;-69
2022/12/19 16:42:42;;;;;;;1.93;1.30;;;11.30;99.90;;;;;;4821682;29;20241;-70
2022/12/19 16:45:17;;;;;;;2.33;1.10;;;11.20;99.90;;;;;;4822199;29;20224;-70
2022/12/19 16:47:44;;;;;;;2.97;0.90;;;11.00;99.90;;;;;;4821859;29;20362;-70
2022/12/19 16:50:23;;;;;;;2.03;1.00;;;11.00;99.90;;;;;;4821694;29;20224;-69
2022/12/19 16:52:52;;;;;;;6.53;1.50;;;11.00;99.90;;;;;;4818653;29;20214;-71
2022/12/19 16:55:19;;;;;;;2.93;1.10;;;10.90;99.90;;;;;;4821138;29;20209;-71
2022/12/19 16:57:49;;;;;;;3.90;1.77;;;10.90;99.90;;;;;;4821220;29;20253;-69
2022/12/19 17:00:18;;;;;;;4.30;1.37;;;10.90;99.90;;;;;;4821510;29;20221;-70
2022/12/19 17:02:48;;;;;;;4.90;1.30;;;10.90;99.90;;;;;;4821230;29;20218;-71
2022/12/19 17:05:21;;;;;;;2.33;1.07;;;10.80;99.90;;;;;;4821217;29;20221;-71
2022/12/19 17:07:48;;;;;;;2.30;1.30;;;10.90;99.90;;;;;;4821861;29;20240;-71
2022/12/19 17:10:18;;;;;;;1.93;1.20;;;10.90;99.90;;;;;;4822011;29;20205;-71
2022/12/19 17:12:45;;;;;;;2.23;1.10;;;10.90;99.90;;;;;;4821640;29;20217;-69
2022/12/19 17:15:24;;;;;;;5.13;1.20;;;11.00;99.90;;;;;;4821524;29;20217;-70
2022/12/19 17:17:52;;;;;;;3.60;1.30;;;10.90;99.90;;;;;;4824608;29;20256;-71
2022/12/19 17:20:21;;;;;;;2.73;1.30;;;10.90;99.90;;;;;;4824102;29;20214;-70
2022/12/19 17:22:48;;;;;;;1.83;1.10;;;10.90;99.90;;;;;;4824873;29;20218;-68
2022/12/19 17:25:20;;;;;;;4.57;1.10;;;10.80;99.90;;;;;;4824597;29;20229;-70
2022/12/19 17:27:47;;;;;;;2.90;1.10;;;10.80;99.90;;;;;;4824140;29;20241;-70
2022/12/19 17:30:15;;;;;;;3.93;1.70;;;10.90;99.90;;;;;;4824509;29;20236;-70
2022/12/19 17:32:42;;;;;;;2.67;1.47;;;10.90;99.90;;;;;;4824217;29;20220;-69
2022/12/19 17:35:15;;;;;;;1.87;1.20;;;10.90;99.90;;;;;;4824029;29;20232;-72
2022/12/19 17:37:46;;;;;;;2.33;1.30;;;10.90;99.90;;;;;;4824083;29;20336;-70
2022/12/19 17:40:22;;;;;;;1.70;1.50;;;10.90;99.90;;;;;;4824494;29;20227;-72
2022/12/19 17:42:50;;;;;;;6.23;2.47;;;11.00;99.90;;;;;;4824585;29;20213;-70
2022/12/19 17:45:17;;;;;;;3.53;1.40;;;10.90;99.90;;;;;;4824530;29;20225;-71
2022/12/19 17:47:45;;;;;;;3.77;1.87;;;10.90;99.90;;;;;;4824316;29;20297;-70
2022/12/19 17:50:22;;;;;;;2.40;1.20;;;10.90;99.90;;;;;;4823810;29;20217;-71
2022/12/19 17:52:49;;;;;;;3.17;1.33;;;10.90;99.90;;;;;;4824368;29;20572;-71
2022/12/19 17:55:20;;;;;;;3.10;1.20;;;10.90;99.90;;;;;;4823962;29;20736;-72
2022/12/19 17:57:47;;;;;;;2.07;1.00;;;10.80;99.90;;;;;;4823632;29;20243;-75
2022/12/19 18:00:15;;;;;;;1.67;1.00;;;10.80;99.90;;;;;;4823846;29;20554;-75
2022/12/19 18:02:43;;;;;;;4.67;1.80;;;10.80;99.90;;;;;;4824234;29;20637;-71
2022/12/19 18:05:18;;;;;;;3.00;1.40;;;10.80;99.90;;;;;;4823007;29;20218;-71
2022/12/19 18:07:45;;;;;;;1.80;1.20;;;10.80;99.90;;;;;;4824301;29;20264;-71
2022/12/19 18:10:17;;;;;;;2.30;1.10;;;10.90;99.90;;;;;;4824469;29;20223;-71
2022/12/19 18:12:46;;;;;;;3.43;1.20;;;10.80;99.90;;;;;;4823848;29;20210;-69
2022/12/19 18:15:13;;;;;;;3.33;0.90;;;10.80;99.90;;;;;;4823740;29;20216;-71
2022/12/19 18:17:41;;;;;;;1.93;1.07;;;10.80;99.90;;;;;;4823152;29;20255;-72
2022/12/19 18:20:24;;;;;;;3.17;1.30;;;10.80;99.90;;;;;;4823773;29;20224;-71
2022/12/19 18:22:51;;;;;;;2.63;1.27;;;10.80;99.90;;;;;;4824038;29;20680;-71
2022/12/19 18:25:20;;;;;;;4.73;1.20;;;10.80;99.90;;;;;;4823875;29;20213;-72
2022/12/19 18:27:48;;;;;;;2.67;1.10;;;10.80;99.90;;;;;;4821795;29;20769;-70
2022/12/19 18:30:16;;;;;;;2.27;1.20;;;10.70;99.90;;;;;;4823879;29;20678;-70
2022/12/19 18:32:46;;;;;;;2.17;1.30;;;10.70;99.90;;;;;;4824242;29;20214;-70
2022/12/19 18:35:19;;;;;;;2.63;1.23;;;10.70;99.90;;;;;;4823726;29;21076;-70
2022/12/19 18:37:47;;;;;;;1.87;1.27;;;10.70;99.90;;;;;;4824567;29;20241;-70
2022/12/19 18:40:15;;;;;;;4.77;1.47;;;10.70;99.90;;;;;;4825107;29;20278;-71
2022/12/19 18:42:42;;;;;;;3.63;1.20;;;10.70;99.90;;;;;;4825030;29;20225;-71
2022/12/19 18:45:15;;;;;;;2.93;1.07;;;10.70;99.90;;;;;;4825167;29;20220;-70
2022/12/19 18:47:44;;;;;;;1.93;1.20;;;10.70;99.90;;;;;;4824708;29;20380;-71
2022/12/19 18:50:17;;;;;;;2.60;1.40;;;10.70;99.90;;;;;;4824798;29;20220;-71
2022/12/19 18:52:44;;;;;;;1.60;1.00;;;10.70;99.90;;;;;;4824727;29;20236;-71
2022/12/19 18:55:18;;;;;;;3.63;1.33;;;10.70;99.90;;;;;;4824815;29;20339;-70
2022/12/19 18:57:46;;;;;;;2.83;1.20;;;10.70;99.90;;;;;;4824871;29;20232;-71
2022/12/19 19:00:17;;;;;;;2.77;1.20;;;10.60;99.90;;;;;;4824995;29;20225;-71
2022/12/19 19:02:48;;;;;;;1.80;1.07;;;10.60;99.90;;;;;;4824776;29;20252;-70
2022/12/19 19:05:18;;;;;;;1.80;1.00;;;10.60;99.90;;;;;;4824701;29;20220;-70
2022/12/19 19:07:45;;;;;;;2.00;1.00;;;10.60;99.90;;;;;;4824697;29;20747;-70
2022/12/19 19:10:22;;;;;;;1.90;1.40;;;10.60;99.90;;;;;;4824725;29;20296;-70
2022/12/19 19:12:49;;;;;;;2.53;1.20;;;10.70;99.90;;;;;;4824404;29;20209;-70
2022/12/19 19:15:20;;;;;;;3.07;1.07;;;10.70;99.90;;;;;;4824427;29;20217;-70
2022/12/19 19:17:49;;;;;;;1.73;1.27;;;10.80;99.90;;;;;;4824200;29;20669;-70
2022/12/19 19:20:17;;;;;;;1.90;1.10;;;10.70;99.90;;;;;;4824744;29;20213;-70
2022/12/19 19:22:45;;;;;;;3.80;1.30;;;10.70;99.90;;;;;;4824436;29;20446;-70
2022/12/19 19:25:13;;;;;;;2.23;1.30;;;10.60;99.90;;;;;;4824381;29;20240;-70
2022/12/19 19:27:40;;;;;;;1.80;1.10;;;10.60;99.90;;;;;;4824073;29;20583;-70
2022/12/19 19:30:08;;;;;;;3.10;1.33;;;10.60;99.90;;;;;;4824275;29;20214;-70
2022/12/19 19:32:39;;;;;;;2.00;1.20;;;10.60;99.90;;;;;;4824207;29;20209;-70
2022/12/19 19:35:08;;;;;;;1.90;1.23;;;10.70;99.90;;;;;;4824649;29;20213;-70
2022/12/19 19:37:35;;;;;;;2.40;1.10;;;10.70;99.90;;;;;;4824161;29;20293;-70
2022/12/19 19:40:02;;;;;;;2.67;1.30;;;10.70;99.90;;;;;;4824233;29;20247;-70
2022/12/19 19:42:29;;;;;;;3.07;1.67;;;10.70;99.90;;;;;;4824033;29;20209;-70
2022/12/19 19:44:56;;;;;;;2.57;1.10;;;10.60;99.90;;;;;;4824106;29;20231;-70
2022/12/19 19:47:26;;;;;;;3.60;1.77;;;10.60;99.90;;;;;;4824191;29;20256;-71
2022/12/19 19:49:55;;;;;;;4.97;1.80;;;10.70;99.90;;;;;;4823957;29;20230;-70
2022/12/19 19:52:22;;;;;;;7.03;2.57;;;10.70;99.90;;;;;;4823940;29;20689;-69
2022/12/19 19:54:49;;;;;;;4.13;1.90;;;10.60;99.90;;;;;;4824083;29;20213;-70
2022/12/19 19:57:16;;;;;;;7.47;2.33;;;10.60;99.90;;;;;;4823914;29;20238;-69
2022/12/19 19:59:43;;;;;;;6.20;2.57;;;10.60;99.90;;;;;;4823622;29;20251;-69
2022/12/19 20:02:11;;;;;;;3.20;2.00;;;10.60;99.90;;;;;;4823911;29;20240;-69
2022/12/19 20:04:38;;;;;;;3.40;2.17;;;10.60;99.90;;;;;;4824004;29;20213;-69
2022/12/19 20:07:06;;;;;;;2.97;1.60;;;10.70;99.90;;;;;;4823833;29;20233;-69
2022/12/19 20:09:33;;;;;;;4.07;2.13;;;10.70;99.90;;;;;;4823844;29;20220;-69
2022/12/19 20:12:00;;;;;;;2.23;1.40;;;10.70;99.90;;;;;;4823682;29;20220;-69
2022/12/19 20:14:27;;;;;;;2.63;1.50;;;10.70;99.90;;;;;;4823522;29;20568;-69
2022/12/19 20:16:54;;;;;;;3.07;1.67;;;10.80;99.90;;;;;;4823344;29;20679;-70
2022/12/19 20:19:21;;;;;;;3.93;1.40;;;10.80;99.90;;;;;;4823874;29;20240;-69
2022/12/19 20:21:49;;;;;;;2.33;1.33;;;11.00;99.90;;;;;;4823658;29;20220;-69
2022/12/19 20:24:17;;;;;;;2.97;1.70;;;11.00;99.90;;;;;;4823433;29;20295;-70
2022/12/19 20:26:44;;;;;;;2.33;1.30;;;11.10;99.90;;;;;;4823081;29;20217;-69
2022/12/19 20:29:11;;;;;;;2.47;1.30;;;11.20;99.90;;;;;;4823548;29;20219;-69
2022/12/19 20:31:38;;;;;;;3.73;2.20;;;11.20;99.90;;;;;;4823752;29;20235;-69
2022/12/19 20:34:05;;;;;;;8.23;3.53;;;11.30;99.90;;;;;;4823774;29;20210;-69
2022/12/19 20:36:34;;;;;;;4.33;1.33;;;11.30;99.90;;;;;;4823629;29;20661;-69
2022/12/19 20:39:01;;;;;;;3.40;1.67;;;11.20;99.90;;;;;;4823527;29;20293;-69
2022/12/19 20:41:29;;;;;;;1.80;1.20;;;11.20;99.90;;;;;;4823365;29;20210;-69
2022/12/19 20:43:56;;;;;;;5.53;2.23;;;11.20;99.90;;;;;;4823542;29;20209;-69
2022/12/19 20:46:23;;;;;;;2.40;1.20;;;11.20;99.90;;;;;;4823534;29;20218;-69
2022/12/19 20:48:50;;;;;;;1.73;1.10;;;11.20;99.90;;;;;;4823420;29;20593;-69
2022/12/19 20:51:19;;;;;;;3.00;1.10;;;11.30;99.90;;;;;;4824599;29;20217;-69
2022/12/19 20:53:46;;;;;;;2.37;0.90;;;11.30;99.90;;;;;;4826582;29;20247;-69
2022/12/19 20:56:15;;;;;;;3.03;1.40;;;11.40;99.90;;;;;;4826933;29;20218;-70
2022/12/19 20:58:43;;;;;;;1.53;1.10;;;11.50;99.90;;;;;;4826440;29;20245;-70
2022/12/19 21:01:12;;;;;;;8.33;2.50;;;11.50;99.90;;;;;;4826382;29;20232;-70
2022/12/19 21:03:39;;;;;;;8.23;3.40;;;11.50;99.90;;;;;;4826714;29;20214;-70
2022/12/19 21:06:08;;;;;;;2.67;1.30;;;11.60;99.90;;;;;;4826548;29;20282;-69
2022/12/19 21:08:35;;;;;;;1.50;1.00;;;11.60;99.90;;;;;;4826412;29;20248;-69
2022/12/19 21:11:04;;;;;;;2.17;0.80;;;11.70;99.90;;;;;;4826575;29;20209;-70
2022/12/19 21:13:31;;;;;;;2.10;0.90;;;11.70;99.90;;;;;;4826321;29;20244;-69
2022/12/19 21:16:01;;;;;;;2.83;0.90;;;11.80;99.90;;;;;;4826301;29;20246;-69
2022/12/19 21:18:29;;;;;;;2.20;0.90;;;11.90;99.90;;;;;;4826056;29;20233;-69
2022/12/19 21:20:56;;;;;;;1.60;0.97;;;11.80;99.90;;;;;;4826077;29;20300;-70
2022/12/19 21:23:24;;;;;;;2.63;1.20;;;11.80;99.90;;;;;;4825972;29;20681;-70
2022/12/19 21:25:51;;;;;;;2.07;1.20;;;11.90;99.90;;;;;;4826178;29;20218;-70
2022/12/19 21:28:18;;;;;;;3.37;1.20;;;11.90;99.90;;;;;;4824344;29;20243;-70
2022/12/19 21:30:45;;;;;;;2.40;1.30;;;11.90;99.90;;;;;;4823855;29;20217;-70
2022/12/19 21:33:13;;;;;;;1.67;0.90;;;11.90;99.90;;;;;;4824918;29;20206;-72
2022/12/19 21:35:40;;;;;;;4.70;0.90;;;12.00;99.90;;;;;;4825700;29;20214;-71
2022/12/19 21:38:07;;;;;;;3.20;1.03;;;11.90;99.90;;;;;;4825702;29;20704;-71
2022/12/19 21:40:35;;;;;;;3.30;1.13;;;11.90;99.90;;;;;;4825886;29;20247;-71
2022/12/19 21:43:02;;;;;;;2.90;1.00;;;11.90;99.90;;;;;;4825828;29;20223;-71
2022/12/19 21:45:29;;;;;;;1.67;0.87;;;11.90;99.90;;;;;;4825812;29;20221;-71
2022/12/19 21:47:56;;;;;;;2.13;0.90;;;11.80;99.90;;;;;;4825574;29;20253;-72
2022/12/19 21:50:24;;;;;;;1.97;0.90;;;11.80;99.90;;;;;;4825869;29;20224;-71
2022/12/19 21:52:50;;;;;;;2.90;1.03;;;11.80;99.90;;;;;;4825749;29;20304;-71
2022/12/19 21:55:17;;;;;;;1.17;0.73;;;11.80;99.90;;;;;;4825943;29;20214;-72
2022/12/19 21:57:44;;;;;;;1.00;0.80;;;11.80;99.90;;;;;;4826219;29;20717;-71
2022/12/19 22:00:13;;;;;;;1.57;0.90;;;11.70;99.90;;;;;;4825325;29;20245;-71
2022/12/19 22:02:40;;;;;;;1.47;0.90;;;11.80;99.90;;;;;;4824561;29;20699;-71
2022/12/19 22:05:07;;;;;;;2.13;0.93;;;11.70;99.90;;;;;;4825785;29;20214;-71
2022/12/19 22:07:35;;;;;;;2.40;0.90;;;11.70;99.90;;;;;;4825691;29;20237;-71
2022/12/19 22:10:02;;;;;;;1.60;0.70;;;11.70;99.90;;;;;;4825442;29;20214;-71
2022/12/19 22:12:29;;;;;;;1.23;0.90;;;11.60;99.90;;;;;;4825232;29;20300;-71
2022/12/19 22:14:56;;;;;;;1.53;0.77;;;11.60;99.90;;;;;;4825521;29;20216;-71
2022/12/19 22:17:23;;;;;;;1.90;0.90;;;11.60;99.90;;;;;;4825295;29;20674;-71
2022/12/19 22:19:49;;;;;;;2.20;0.90;;;11.70;99.90;;;;;;4822330;29;20410;-70
